Chamberlain, Maine
Current Conditions -  °F | °C
As of 11:10 AM on Thursday 18 Dec 2014 (Local Time) from KIWI Reporting Station
Overcast Overcast  
Wind Chill: 37°   Ceiling: 3400
Heat Index: 37°   Visibility: 10mi
Dew Point: 34°   Wind: 3mph
Humidity: 89%   Direction: NA
Pressure: 29.68"   Gusts: NA
Location:  43.89°N, 69.48°W
Report Text: KIWI 181610Z AUTO VRB03KT 10SM SCT013 BKN034 OVC047 03/01 A2968 RMK AO2 UPE1559 P0000 T00280011
Loading
Personal Weather Stations






























Interactive Weather Map New forecast layout! Learn more

10-Day Weather Forecast

Advertisements
Track Severe Weather on mobile